AFR358 EDDV-LFMN
Flight info
| Callsign | AFR358 |
|---|---|
| Flight time | 1h 37m |
| Altitude | 39000 |
| Route | NORTA1G/09R NORTA P605 WERRA DCT LAMOP DCT SWALM/N0453F400 DCT SOGMI DCT KRH DCT NATOR/N0451F390 DCT TRA DCT RIPUS DCT GERSA DCT SOSON DCT ODINA DCT ENOBA DCT ASBOP/N0390F190 Z185 BORDI |
| Aircraft | B736/M-SDE2E3FGHIRWXY/LB1 |
Departure
| Time | 2026-05-01 10:56 |
|---|---|
| Airport | Hannover Airport (EDDV) |
Arrival
| Time | 2026-05-01 12:33 |
|---|---|
| Airport | Nice-Côte d'Azur Airport (LFMN) |
| Time | Latitude | Longitude | Altitude | Speed | Heading |
|---|---|---|---|---|---|
| 2026-05-01 10:39 | 52.45835 | 9.68847 | 182 ft | 0 kts | 2° |
| 2026-05-01 10:48 | 52.45822 | 9.68844 | 182 ft | 2 kts | 18° |
| 2026-05-01 10:48 | 52.45807 | 9.68835 | 182 ft | 2 kts | 31° |
| 2026-05-01 10:49 | 52.45794 | 9.68818 | 182 ft | 2 kts | 54° |
| 2026-05-01 10:49 | 52.45786 | 9.68795 | 182 ft | 2 kts | 73° |
| 2026-05-01 10:49 | 52.45783 | 9.68770 | 182 ft | 2 kts | 85° |
| 2026-05-01 10:49 | 52.45782 | 9.68750 | 182 ft | 1 kts | 91° |
| 2026-05-01 10:50 | 52.45783 | 9.68747 | 182 ft | 0 kts | 92° |
| 2026-05-01 10:51 | 52.45784 | 9.68803 | 182 ft | 10 kts | 81° |
| 2026-05-01 10:52 | 52.45791 | 9.68915 | 182 ft | 10 kts | 88° |
| 2026-05-01 10:52 | 52.45792 | 9.68988 | 182 ft | 6 kts | 93° |
| 2026-05-01 10:52 | 52.45793 | 9.69067 | 182 ft | 10 kts | 117° |
| 2026-05-01 10:52 | 52.45737 | 9.69146 | 183 ft | 11 kts | 141° |
| 2026-05-01 10:53 | 52.45688 | 9.69151 | 183 ft | 8 kts | 176° |
| 2026-05-01 10:53 | 52.45632 | 9.69122 | 183 ft | 9 kts | 236° |
| 2026-05-01 10:53 | 52.45628 | 9.69002 | 183 ft | 16 kts | 274° |
| 2026-05-01 10:53 | 52.45630 | 9.68811 | 182 ft | 15 kts | 270° |
| 2026-05-01 10:54 | 52.45636 | 9.68639 | 182 ft | 15 kts | 275° |
| 2026-05-01 10:54 | 52.45638 | 9.68464 | 182 ft | 16 kts | 269° |
| 2026-05-01 10:54 | 52.45643 | 9.68286 | 182 ft | 16 kts | 272° |
| 2026-05-01 10:54 | 52.45651 | 9.68085 | 181 ft | 19 kts | 272° |
| 2026-05-01 10:55 | 52.45657 | 9.67862 | 181 ft | 20 kts | 268° |
| 2026-05-01 10:55 | 52.45588 | 9.67699 | 180 ft | 19 kts | 182° |
| 2026-05-01 10:55 | 52.45500 | 9.67831 | 180 ft | 21 kts | 96° |
| 2026-05-01 10:55 | 52.45489 | 9.68276 | 180 ft | 72 kts | 92° |
| 2026-05-01 10:56 | 52.45452 | 9.69516 | 186 ft | 142 kts | 92° |
| 2026-05-01 10:56 | 52.45437 | 9.71357 | 490 ft | 174 kts | 90° |
| 2026-05-01 10:56 | 52.45454 | 9.73501 | 998 ft | 201 kts | 90° |
| 2026-05-01 10:56 | 52.45454 | 9.75830 | 1783 ft | 205 kts | 94° |
| 2026-05-01 10:57 | 52.45330 | 9.78220 | 2438 ft | 212 kts | 96° |
| 2026-05-01 10:57 | 52.45199 | 9.80632 | 3079 ft | 218 kts | 96° |
| 2026-05-01 10:57 | 52.45079 | 9.83092 | 3459 ft | 213 kts | 94° |
| 2026-05-01 10:57 | 52.44986 | 9.85551 | 3588 ft | 223 kts | 94° |
| 2026-05-01 10:58 | 52.44908 | 9.88142 | 3432 ft | 227 kts | 92° |
| 2026-05-01 10:58 | 52.44748 | 9.90620 | 3586 ft | 211 kts | 107° |
| 2026-05-01 10:58 | 52.44058 | 9.92715 | 3501 ft | 212 kts | 142° |
| 2026-05-01 10:58 | 52.42784 | 9.93603 | 3738 ft | 201 kts | 166° |
| 2026-05-01 10:59 | 52.41399 | 9.94273 | 3852 ft | 217 kts | 165° |
| 2026-05-01 10:59 | 52.39892 | 9.94171 | 4529 ft | 223 kts | 206° |
| 2026-05-01 10:59 | 52.38560 | 9.92896 | 5361 ft | 224 kts | 204° |
| 2026-05-01 10:59 | 52.37070 | 9.92067 | 6185 ft | 227 kts | 195° |
| 2026-05-01 11:00 | 52.35523 | 9.91438 | 7066 ft | 230 kts | 193° |
| 2026-05-01 11:00 | 52.33946 | 9.90893 | 7944 ft | 233 kts | 191° |
| 2026-05-01 11:00 | 52.32340 | 9.90393 | 8835 ft | 237 kts | 191° |
| 2026-05-01 11:00 | 52.30704 | 9.89928 | 9746 ft | 240 kts | 190° |
| 2026-05-01 11:01 | 52.29043 | 9.89477 | 10634 ft | 243 kts | 189° |
| 2026-05-01 11:01 | 52.27364 | 9.89029 | 11536 ft | 247 kts | 189° |
| 2026-05-01 11:01 | 52.25659 | 9.88578 | 12433 ft | 250 kts | 189° |
| 2026-05-01 11:01 | 52.23926 | 9.88161 | 13303 ft | 254 kts | 187° |
| 2026-05-01 11:02 | 52.22185 | 9.87814 | 14159 ft | 257 kts | 187° |
| 2026-05-01 11:02 | 52.20394 | 9.87473 | 15034 ft | 260 kts | 187° |
| 2026-05-01 11:02 | 52.18585 | 9.87131 | 15885 ft | 264 kts | 187° |
| 2026-05-01 11:02 | 52.16743 | 9.86780 | 16735 ft | 268 kts | 187° |
| 2026-05-01 11:03 | 52.14877 | 9.86422 | 17558 ft | 271 kts | 187° |
| 2026-05-01 11:03 | 52.12990 | 9.86059 | 18355 ft | 274 kts | 187° |
| 2026-05-01 11:03 | 52.11082 | 9.85691 | 19070 ft | 278 kts | 187° |
| 2026-05-01 11:03 | 52.09142 | 9.85316 | 19772 ft | 282 kts | 187° |
| 2026-05-01 11:04 | 52.07182 | 9.84936 | 20485 ft | 285 kts | 187° |
| 2026-05-01 11:04 | 52.05199 | 9.84552 | 21126 ft | 287 kts | 187° |
| 2026-05-01 11:04 | 52.03198 | 9.84165 | 21616 ft | 292 kts | 187° |
| 2026-05-01 11:04 | 52.01200 | 9.83778 | 22101 ft | 294 kts | 187° |
| 2026-05-01 11:05 | 51.99158 | 9.83383 | 22614 ft | 296 kts | 187° |
| 2026-05-01 11:05 | 51.97107 | 9.82987 | 23109 ft | 298 kts | 187° |
| 2026-05-01 11:05 | 51.95036 | 9.82587 | 23586 ft | 301 kts | 187° |
| 2026-05-01 11:05 | 51.92943 | 9.82183 | 24061 ft | 303 kts | 187° |
| 2026-05-01 11:06 | 51.90839 | 9.81778 | 24521 ft | 306 kts | 187° |
| 2026-05-01 11:06 | 51.88716 | 9.81369 | 24970 ft | 308 kts | 187° |
| 2026-05-01 11:06 | 51.86579 | 9.80959 | 25413 ft | 310 kts | 187° |
| 2026-05-01 11:07 | 51.82260 | 9.80132 | 26290 ft | 314 kts | 187° |
| 2026-05-01 11:07 | 51.80094 | 9.79717 | 26799 ft | 312 kts | 187° |
| 2026-05-01 11:07 | 51.77947 | 9.79307 | 27303 ft | 310 kts | 187° |
| 2026-05-01 11:07 | 51.75805 | 9.78899 | 27753 ft | 310 kts | 187° |
| 2026-05-01 11:08 | 51.73658 | 9.78490 | 28196 ft | 311 kts | 187° |
| 2026-05-01 11:08 | 51.71538 | 9.78086 | 28736 ft | 309 kts | 187° |
| 2026-05-01 11:08 | 51.67258 | 9.77271 | 28986 ft | 307 kts | 187° |
| 2026-05-01 11:09 | 51.65134 | 9.76868 | 28998 ft | 308 kts | 187° |
| 2026-05-01 11:09 | 51.60856 | 9.76053 | 29012 ft | 310 kts | 187° |
| 2026-05-01 11:10 | 51.54414 | 9.74817 | 29004 ft | 313 kts | 187° |
| 2026-05-01 11:10 | 51.49944 | 9.73962 | 29159 ft | 336 kts | 187° |
| 2026-05-01 11:11 | 51.47575 | 9.73490 | 29249 ft | 349 kts | 189° |
| 2026-05-01 11:11 | 51.45176 | 9.72525 | 29334 ft | 362 kts | 198° |
| 2026-05-01 11:11 | 51.42753 | 9.71202 | 29418 ft | 374 kts | 200° |
| 2026-05-01 11:11 | 51.40292 | 9.69791 | 29495 ft | 386 kts | 200° |
| 2026-05-01 11:12 | 51.35097 | 9.66809 | 29663 ft | 406 kts | 200° |
| 2026-05-01 11:12 | 51.29641 | 9.63743 | 29805 ft | 424 kts | 199° |
| 2026-05-01 11:13 | 51.23960 | 9.60591 | 29926 ft | 439 kts | 199° |
| 2026-05-01 11:13 | 51.18128 | 9.57372 | 30026 ft | 451 kts | 199° |
| 2026-05-01 11:14 | 51.12125 | 9.54066 | 30095 ft | 461 kts | 199° |
| 2026-05-01 11:14 | 51.05997 | 9.50698 | 30160 ft | 469 kts | 199° |
| 2026-05-01 11:15 | 50.99787 | 9.47267 | 30376 ft | 472 kts | 201° |
| 2026-05-01 11:15 | 50.96810 | 9.45073 | 30559 ft | 471 kts | 210° |
| 2026-05-01 11:15 | 50.94007 | 9.42363 | 30802 ft | 470 kts | 212° |
| 2026-05-01 11:16 | 50.91249 | 9.39607 | 30975 ft | 469 kts | 212° |
| 2026-05-01 11:16 | 50.88519 | 9.36883 | 31119 ft | 470 kts | 212° |
| 2026-05-01 11:16 | 50.85740 | 9.34145 | 31281 ft | 470 kts | 212° |
| 2026-05-01 11:16 | 50.82951 | 9.31431 | 31473 ft | 469 kts | 211° |
| 2026-05-01 11:17 | 50.80166 | 9.28743 | 31672 ft | 468 kts | 211° |
| 2026-05-01 11:17 | 50.77382 | 9.26063 | 31849 ft | 468 kts | 211° |
| 2026-05-01 11:17 | 50.74601 | 9.23389 | 32022 ft | 468 kts | 211° |
| 2026-05-01 11:17 | 50.71879 | 9.20580 | 32195 ft | 467 kts | 217° |
| 2026-05-01 11:18 | 50.69465 | 9.17246 | 32380 ft | 467 kts | 225° |
| 2026-05-01 11:18 | 50.67219 | 9.13539 | 32592 ft | 466 kts | 227° |
| 2026-05-01 11:18 | 50.65004 | 9.09812 | 32771 ft | 466 kts | 227° |
| 2026-05-01 11:18 | 50.62773 | 9.06090 | 32946 ft | 466 kts | 226° |
| 2026-05-01 11:19 | 50.60532 | 9.02409 | 33146 ft | 465 kts | 226° |
| 2026-05-01 11:19 | 50.58305 | 8.98793 | 33350 ft | 465 kts | 226° |
| 2026-05-01 11:19 | 50.56044 | 8.95168 | 33545 ft | 464 kts | 223° |
| 2026-05-01 11:19 | 50.53480 | 8.92074 | 33699 ft | 465 kts | 211° |
| 2026-05-01 11:20 | 50.50576 | 8.89854 | 33916 ft | 464 kts | 200° |
| 2026-05-01 11:20 | 50.47457 | 8.88542 | 34127 ft | 463 kts | 189° |
| 2026-05-01 11:20 | 50.44266 | 8.87846 | 34342 ft | 463 kts | 187° |
| 2026-05-01 11:20 | 50.41066 | 8.87231 | 34512 ft | 463 kts | 187° |
| 2026-05-01 11:21 | 50.37897 | 8.86639 | 34692 ft | 463 kts | 187° |
| 2026-05-01 11:21 | 50.34703 | 8.86029 | 34915 ft | 462 kts | 187° |
| 2026-05-01 11:21 | 50.31473 | 8.85392 | 35147 ft | 461 kts | 187° |
| 2026-05-01 11:21 | 50.28332 | 8.84754 | 35352 ft | 461 kts | 187° |
| 2026-05-01 11:22 | 50.25151 | 8.84096 | 35551 ft | 461 kts | 188° |
| 2026-05-01 11:22 | 50.21969 | 8.83432 | 35759 ft | 461 kts | 188° |
| 2026-05-01 11:22 | 50.18789 | 8.82765 | 35981 ft | 460 kts | 188° |
| 2026-05-01 11:22 | 50.15617 | 8.82100 | 36190 ft | 459 kts | 188° |
| 2026-05-01 11:23 | 50.12444 | 8.81436 | 36368 ft | 460 kts | 188° |
| 2026-05-01 11:23 | 50.09265 | 8.80772 | 36538 ft | 460 kts | 188° |
| 2026-05-01 11:23 | 50.06100 | 8.80114 | 36727 ft | 460 kts | 188° |
| 2026-05-01 11:23 | 50.02954 | 8.79460 | 36921 ft | 460 kts | 188° |
| 2026-05-01 11:24 | 49.99786 | 8.78803 | 37102 ft | 460 kts | 188° |
| 2026-05-01 11:24 | 49.96604 | 8.78144 | 37276 ft | 460 kts | 188° |
| 2026-05-01 11:24 | 49.90250 | 8.76830 | 37623 ft | 460 kts | 188° |
| 2026-05-01 11:25 | 49.88150 | 8.76397 | 37729 ft | 460 kts | 188° |
| 2026-05-01 11:25 | 49.81805 | 8.75090 | 38053 ft | 460 kts | 188° |
| 2026-05-01 11:25 | 49.77599 | 8.74225 | 38259 ft | 460 kts | 188° |
| 2026-05-01 11:26 | 49.74425 | 8.73574 | 38410 ft | 460 kts | 188° |
| 2026-05-01 11:26 | 49.69105 | 8.72484 | 38662 ft | 460 kts | 188° |
| 2026-05-01 11:26 | 49.65927 | 8.71834 | 38803 ft | 460 kts | 188° |
| 2026-05-01 11:27 | 49.62804 | 8.71196 | 38934 ft | 459 kts | 188° |
| 2026-05-01 11:27 | 49.56455 | 8.69902 | 38998 ft | 461 kts | 188° |
| 2026-05-01 11:28 | 49.50094 | 8.68609 | 39004 ft | 460 kts | 188° |
| 2026-05-01 11:28 | 49.43734 | 8.67319 | 39010 ft | 461 kts | 187° |
| 2026-05-01 11:29 | 49.34199 | 8.65392 | 39004 ft | 461 kts | 187° |
| 2026-05-01 11:30 | 49.24701 | 8.63480 | 39002 ft | 461 kts | 187° |
| 2026-05-01 11:30 | 49.18331 | 8.62201 | 39002 ft | 460 kts | 187° |
| 2026-05-01 11:31 | 49.11971 | 8.60928 | 38998 ft | 460 kts | 187° |
| 2026-05-01 11:31 | 49.05650 | 8.59665 | 39000 ft | 460 kts | 187° |
| 2026-05-01 11:32 | 48.99303 | 8.58391 | 38998 ft | 460 kts | 189° |
| 2026-05-01 11:32 | 48.93012 | 8.56524 | 39010 ft | 459 kts | 192° |
| 2026-05-01 11:33 | 48.86765 | 8.54413 | 38999 ft | 460 kts | 193° |
| 2026-05-01 11:33 | 48.80543 | 8.52342 | 39002 ft | 459 kts | 192° |
| 2026-05-01 11:34 | 48.74294 | 8.50314 | 39001 ft | 459 kts | 192° |
| 2026-05-01 11:34 | 48.68034 | 8.48305 | 39001 ft | 459 kts | 192° |
| 2026-05-01 11:35 | 48.61774 | 8.46303 | 39003 ft | 459 kts | 192° |
| 2026-05-01 11:35 | 48.55520 | 8.44304 | 38998 ft | 459 kts | 192° |
| 2026-05-01 11:36 | 48.49302 | 8.42322 | 39005 ft | 459 kts | 192° |
| 2026-05-01 11:36 | 48.43042 | 8.40331 | 39004 ft | 459 kts | 192° |
| 2026-05-01 11:37 | 48.36785 | 8.38346 | 39005 ft | 459 kts | 192° |
| 2026-05-01 11:37 | 48.30521 | 8.36363 | 39005 ft | 460 kts | 192° |
| 2026-05-01 11:38 | 48.24255 | 8.34385 | 38991 ft | 460 kts | 192° |
| 2026-05-01 11:38 | 48.17999 | 8.32655 | 38990 ft | 460 kts | 185° |
| 2026-05-01 11:39 | 48.11625 | 8.33208 | 39015 ft | 460 kts | 171° |
| 2026-05-01 11:39 | 48.05307 | 8.34850 | 39008 ft | 460 kts | 170° |
| 2026-05-01 11:40 | 47.98984 | 8.36469 | 39005 ft | 460 kts | 171° |
| 2026-05-01 11:40 | 47.92662 | 8.38015 | 38997 ft | 460 kts | 171° |
| 2026-05-01 11:41 | 47.86365 | 8.39530 | 39007 ft | 460 kts | 171° |
| 2026-05-01 11:41 | 47.80040 | 8.41050 | 39000 ft | 461 kts | 171° |
| 2026-05-01 11:42 | 47.73701 | 8.42573 | 39004 ft | 461 kts | 171° |
| 2026-05-01 11:42 | 47.67359 | 8.44021 | 39001 ft | 461 kts | 173° |
| 2026-05-01 11:43 | 47.60984 | 8.44986 | 38996 ft | 460 kts | 175° |
| 2026-05-01 11:43 | 47.54626 | 8.45843 | 38999 ft | 461 kts | 175° |
| 2026-05-01 11:44 | 47.45039 | 8.47217 | 39005 ft | 460 kts | 174° |
| 2026-05-01 11:44 | 47.38651 | 8.48155 | 39000 ft | 460 kts | 174° |
| 2026-05-01 11:45 | 47.32315 | 8.49081 | 39009 ft | 460 kts | 174° |
| 2026-05-01 11:45 | 47.25926 | 8.50010 | 38996 ft | 460 kts | 174° |
| 2026-05-01 11:46 | 47.19547 | 8.50936 | 39002 ft | 460 kts | 174° |
| 2026-05-01 11:46 | 47.13156 | 8.51875 | 38855 ft | 464 kts | 174° |
| 2026-05-01 11:47 | 47.09934 | 8.52391 | 38697 ft | 466 kts | 174° |
| 2026-05-01 11:47 | 47.06744 | 8.52956 | 38607 ft | 467 kts | 173° |
| 2026-05-01 11:47 | 47.00326 | 8.53941 | 38528 ft | 459 kts | 175° |
| 2026-05-01 11:48 | 46.93965 | 8.54698 | 38748 ft | 452 kts | 175° |
| 2026-05-01 11:48 | 46.90816 | 8.55105 | 38965 ft | 454 kts | 175° |
| 2026-05-01 11:48 | 46.87692 | 8.55533 | 38995 ft | 459 kts | 175° |
| 2026-05-01 11:49 | 46.81275 | 8.56450 | 38995 ft | 463 kts | 174° |
| 2026-05-01 11:49 | 46.74859 | 8.57376 | 39003 ft | 461 kts | 174° |
| 2026-05-01 11:50 | 46.68512 | 8.58286 | 39001 ft | 459 kts | 174° |
| 2026-05-01 11:50 | 46.62154 | 8.59193 | 39004 ft | 458 kts | 174° |
| 2026-05-01 11:51 | 46.55808 | 8.60095 | 39000 ft | 457 kts | 174° |
| 2026-05-01 11:51 | 46.49507 | 8.60990 | 39003 ft | 457 kts | 174° |
| 2026-05-01 11:52 | 46.43165 | 8.61889 | 39003 ft | 457 kts | 174° |
| 2026-05-01 11:52 | 46.36827 | 8.62785 | 38999 ft | 458 kts | 174° |
| 2026-05-01 11:53 | 46.30453 | 8.63684 | 38772 ft | 464 kts | 174° |
| 2026-05-01 11:53 | 46.27238 | 8.64137 | 38474 ft | 463 kts | 174° |
| 2026-05-01 11:53 | 46.24043 | 8.64586 | 38226 ft | 459 kts | 174° |
| 2026-05-01 11:54 | 46.20900 | 8.65028 | 37984 ft | 458 kts | 174° |
| 2026-05-01 11:54 | 46.17717 | 8.65475 | 37739 ft | 459 kts | 174° |
| 2026-05-01 11:54 | 46.14538 | 8.65921 | 37490 ft | 459 kts | 174° |
| 2026-05-01 11:54 | 46.11353 | 8.66321 | 37238 ft | 458 kts | 178° |
| 2026-05-01 11:55 | 46.08169 | 8.66204 | 36982 ft | 458 kts | 187° |
| 2026-05-01 11:55 | 46.05007 | 8.65590 | 36750 ft | 457 kts | 188° |
| 2026-05-01 11:55 | 46.01851 | 8.64905 | 36500 ft | 457 kts | 189° |
| 2026-05-01 11:55 | 45.98716 | 8.64208 | 36251 ft | 457 kts | 189° |
| 2026-05-01 11:56 | 45.95603 | 8.63524 | 36007 ft | 457 kts | 189° |
| 2026-05-01 11:56 | 45.92462 | 8.62851 | 35758 ft | 457 kts | 188° |
| 2026-05-01 11:56 | 45.89308 | 8.62189 | 35516 ft | 458 kts | 188° |
| 2026-05-01 11:56 | 45.86154 | 8.61538 | 35266 ft | 458 kts | 188° |
| 2026-05-01 11:57 | 45.82991 | 8.60892 | 35016 ft | 459 kts | 188° |
| 2026-05-01 11:57 | 45.79826 | 8.60249 | 34769 ft | 459 kts | 188° |
| 2026-05-01 11:57 | 45.76657 | 8.59607 | 34524 ft | 460 kts | 188° |
| 2026-05-01 11:57 | 45.73480 | 8.58964 | 34236 ft | 462 kts | 188° |
| 2026-05-01 11:58 | 45.70289 | 8.58318 | 33942 ft | 463 kts | 188° |
| 2026-05-01 11:58 | 45.67099 | 8.57673 | 33642 ft | 464 kts | 188° |
| 2026-05-01 11:58 | 45.60724 | 8.56385 | 33052 ft | 465 kts | 188° |
| 2026-05-01 11:59 | 45.57513 | 8.55738 | 32751 ft | 466 kts | 188° |
| 2026-05-01 11:59 | 45.54285 | 8.55087 | 32451 ft | 466 kts | 188° |
| 2026-05-01 11:59 | 45.51084 | 8.54443 | 32155 ft | 465 kts | 188° |
| 2026-05-01 12:00 | 45.44659 | 8.53153 | 31558 ft | 466 kts | 188° |
| 2026-05-01 12:00 | 45.41489 | 8.52517 | 31263 ft | 466 kts | 188° |
| 2026-05-01 12:00 | 45.35048 | 8.51227 | 30667 ft | 468 kts | 188° |
| 2026-05-01 12:01 | 45.31821 | 8.50581 | 30369 ft | 468 kts | 188° |
| 2026-05-01 12:01 | 45.28589 | 8.49936 | 30093 ft | 469 kts | 188° |
| 2026-05-01 12:01 | 45.25344 | 8.49289 | 29818 ft | 469 kts | 188° |
| 2026-05-01 12:01 | 45.22107 | 8.48645 | 29546 ft | 470 kts | 188° |
| 2026-05-01 12:02 | 45.18904 | 8.48008 | 29275 ft | 471 kts | 188° |
| 2026-05-01 12:02 | 45.15649 | 8.47360 | 29003 ft | 472 kts | 188° |
| 2026-05-01 12:02 | 45.12388 | 8.46713 | 28729 ft | 472 kts | 188° |
| 2026-05-01 12:02 | 45.09124 | 8.46066 | 28452 ft | 473 kts | 188° |
| 2026-05-01 12:03 | 45.05860 | 8.45419 | 28203 ft | 473 kts | 188° |
| 2026-05-01 12:03 | 45.02638 | 8.44782 | 27956 ft | 474 kts | 188° |
| 2026-05-01 12:03 | 44.99367 | 8.44136 | 27707 ft | 474 kts | 188° |
| 2026-05-01 12:03 | 44.96092 | 8.43489 | 27459 ft | 475 kts | 188° |
| 2026-05-01 12:04 | 44.92814 | 8.42843 | 27210 ft | 475 kts | 188° |
| 2026-05-01 12:04 | 44.89530 | 8.42197 | 26966 ft | 476 kts | 188° |
| 2026-05-01 12:04 | 44.86250 | 8.41552 | 26714 ft | 477 kts | 188° |
| 2026-05-01 12:04 | 44.82961 | 8.40905 | 26465 ft | 477 kts | 188° |
| 2026-05-01 12:05 | 44.79698 | 8.40265 | 26220 ft | 478 kts | 188° |
| 2026-05-01 12:05 | 44.73100 | 8.38972 | 25719 ft | 478 kts | 188° |
| 2026-05-01 12:05 | 44.69803 | 8.38327 | 25467 ft | 478 kts | 188° |
| 2026-05-01 12:06 | 44.66511 | 8.37684 | 25217 ft | 477 kts | 188° |
| 2026-05-01 12:06 | 44.63230 | 8.37044 | 24965 ft | 475 kts | 188° |
| 2026-05-01 12:06 | 44.59967 | 8.36408 | 24691 ft | 473 kts | 188° |
| 2026-05-01 12:06 | 44.56710 | 8.35774 | 24415 ft | 470 kts | 188° |
| 2026-05-01 12:07 | 44.53468 | 8.35144 | 24139 ft | 468 kts | 188° |
| 2026-05-01 12:07 | 44.50293 | 8.34527 | 23865 ft | 466 kts | 188° |
| 2026-05-01 12:07 | 44.47085 | 8.33905 | 23584 ft | 463 kts | 188° |
| 2026-05-01 12:07 | 44.43894 | 8.33286 | 23317 ft | 461 kts | 188° |
| 2026-05-01 12:08 | 44.40714 | 8.32670 | 23038 ft | 459 kts | 188° |
| 2026-05-01 12:08 | 44.37556 | 8.32059 | 22766 ft | 458 kts | 188° |
| 2026-05-01 12:08 | 44.34406 | 8.31430 | 22487 ft | 456 kts | 190° |
| 2026-05-01 12:08 | 44.31404 | 8.30066 | 22190 ft | 454 kts | 207° |
| 2026-05-01 12:09 | 44.28785 | 8.27631 | 21912 ft | 452 kts | 221° |
| 2026-05-01 12:09 | 44.26705 | 8.24362 | 21620 ft | 450 kts | 235° |
| 2026-05-01 12:09 | 44.24971 | 8.20741 | 21326 ft | 448 kts | 236° |
| 2026-05-01 12:09 | 44.23265 | 8.17179 | 21029 ft | 446 kts | 236° |
| 2026-05-01 12:10 | 44.21525 | 8.13597 | 20725 ft | 444 kts | 236° |
| 2026-05-01 12:10 | 44.18032 | 8.06547 | 20094 ft | 441 kts | 235° |
| 2026-05-01 12:10 | 44.16278 | 8.03043 | 19738 ft | 439 kts | 235° |
| 2026-05-01 12:11 | 44.12793 | 7.96088 | 19049 ft | 435 kts | 235° |
| 2026-05-01 12:11 | 44.11066 | 7.92646 | 18685 ft | 432 kts | 235° |
| 2026-05-01 12:11 | 44.09354 | 7.89232 | 18333 ft | 429 kts | 235° |
| 2026-05-01 12:12 | 44.07648 | 7.85834 | 17990 ft | 426 kts | 235° |
| 2026-05-01 12:12 | 44.05956 | 7.82465 | 17631 ft | 423 kts | 235° |
| 2026-05-01 12:12 | 44.04301 | 7.79177 | 17511 ft | 405 kts | 234° |
| 2026-05-01 12:12 | 44.02404 | 7.76439 | 17364 ft | 387 kts | 214° |
| 2026-05-01 12:13 | 44.00043 | 7.74958 | 17196 ft | 370 kts | 196° |
| 2026-05-01 12:13 | 43.97530 | 7.74368 | 16670 ft | 366 kts | 182° |
| 2026-05-01 12:13 | 43.94982 | 7.74560 | 16047 ft | 364 kts | 174° |
| 2026-05-01 12:13 | 43.92542 | 7.74933 | 15893 ft | 343 kts | 173° |
| 2026-05-01 12:14 | 43.90200 | 7.75319 | 15398 ft | 334 kts | 173° |
| 2026-05-01 12:14 | 43.87897 | 7.75693 | 14712 ft | 333 kts | 174° |
| 2026-05-01 12:14 | 43.85597 | 7.76053 | 14026 ft | 331 kts | 174° |
| 2026-05-01 12:14 | 43.83317 | 7.76399 | 13414 ft | 328 kts | 174° |
| 2026-05-01 12:15 | 43.81817 | 7.76623 | 13000 ft | 326 kts | 174° |
| 2026-05-01 12:15 | 43.78842 | 7.77061 | 12176 ft | 322 kts | 174° |
| 2026-05-01 12:15 | 43.76622 | 7.77385 | 11533 ft | 319 kts | 174° |
| 2026-05-01 12:15 | 43.74419 | 7.77705 | 11186 ft | 319 kts | 174° |
| 2026-05-01 12:16 | 43.72924 | 7.77921 | 11107 ft | 319 kts | 174° |
| 2026-05-01 12:16 | 43.70752 | 7.78235 | 11024 ft | 317 kts | 174° |
| 2026-05-01 12:16 | 43.68592 | 7.78547 | 10999 ft | 308 kts | 174° |
| 2026-05-01 12:16 | 43.66472 | 7.78853 | 10992 ft | 304 kts | 174° |
| 2026-05-01 12:17 | 43.64359 | 7.79157 | 11007 ft | 306 kts | 174° |
| 2026-05-01 12:17 | 43.62240 | 7.79462 | 11005 ft | 306 kts | 174° |
| 2026-05-01 12:17 | 43.60119 | 7.79767 | 11001 ft | 306 kts | 174° |
| 2026-05-01 12:17 | 43.57999 | 7.79986 | 10986 ft | 306 kts | 183° |
| 2026-05-01 12:18 | 43.55916 | 7.79428 | 11006 ft | 303 kts | 199° |
| 2026-05-01 12:18 | 43.54022 | 7.78287 | 10949 ft | 293 kts | 209° |
| 2026-05-01 12:18 | 43.52381 | 7.76768 | 10684 ft | 284 kts | 219° |
| 2026-05-01 12:18 | 43.50991 | 7.74848 | 10222 ft | 282 kts | 231° |
| 2026-05-01 12:19 | 43.49861 | 7.72650 | 9736 ft | 281 kts | 228° |
| 2026-05-01 12:19 | 43.48384 | 7.70887 | 9274 ft | 279 kts | 222° |
| 2026-05-01 12:19 | 43.47186 | 7.68780 | 8600 ft | 284 kts | 246° |
| 2026-05-01 12:19 | 43.46689 | 7.66137 | 7864 ft | 290 kts | 261° |
| 2026-05-01 12:20 | 43.46321 | 7.63382 | 7236 ft | 292 kts | 254° |
| 2026-05-01 12:20 | 43.45730 | 7.60733 | 6738 ft | 288 kts | 254° |
| 2026-05-01 12:20 | 43.45205 | 7.58120 | 6451 ft | 276 kts | 255° |
| 2026-05-01 12:20 | 43.44692 | 7.55633 | 5767 ft | 266 kts | 254° |
| 2026-05-01 12:21 | 43.44183 | 7.53235 | 5317 ft | 257 kts | 252° |
| 2026-05-01 12:21 | 43.43669 | 7.50880 | 4984 ft | 257 kts | 253° |
| 2026-05-01 12:21 | 43.43172 | 7.48538 | 4616 ft | 255 kts | 254° |
| 2026-05-01 12:21 | 43.42712 | 7.46189 | 4290 ft | 258 kts | 256° |
| 2026-05-01 12:22 | 43.42253 | 7.43738 | 3290 ft | 267 kts | 254° |
| 2026-05-01 12:22 | 43.41762 | 7.41359 | 2985 ft | 251 kts | 254° |
| 2026-05-01 12:22 | 43.41286 | 7.39044 | 2863 ft | 252 kts | 254° |
| 2026-05-01 12:22 | 43.40830 | 7.36722 | 2651 ft | 251 kts | 254° |
| 2026-05-01 12:23 | 43.40376 | 7.34432 | 2683 ft | 247 kts | 256° |
| 2026-05-01 12:23 | 43.39981 | 7.32101 | 2590 ft | 249 kts | 258° |
| 2026-05-01 12:23 | 43.39572 | 7.29799 | 2547 ft | 244 kts | 255° |
| 2026-05-01 12:23 | 43.39106 | 7.27517 | 2586 ft | 254 kts | 254° |
| 2026-05-01 12:24 | 43.38705 | 7.25198 | 2197 ft | 253 kts | 263° |
| 2026-05-01 12:24 | 43.38673 | 7.22852 | 2403 ft | 244 kts | 272° |
| 2026-05-01 12:24 | 43.38717 | 7.20573 | 2568 ft | 232 kts | 271° |
| 2026-05-01 12:24 | 43.38792 | 7.18378 | 2623 ft | 227 kts | 274° |
| 2026-05-01 12:25 | 43.38875 | 7.16218 | 2530 ft | 229 kts | 270° |
| 2026-05-01 12:25 | 43.38978 | 7.11990 | 2744 ft | 215 kts | 272° |
| 2026-05-01 12:25 | 43.39204 | 7.10064 | 3083 ft | 194 kts | 283° |
| 2026-05-01 12:26 | 43.39331 | 7.08290 | 3142 ft | 184 kts | 254° |
| 2026-05-01 12:26 | 43.37768 | 7.05964 | 3175 ft | 176 kts | 238° |
| 2026-05-01 12:26 | 43.37463 | 7.04309 | 2894 ft | 188 kts | 275° |
| 2026-05-01 12:27 | 43.37827 | 7.02570 | 2654 ft | 196 kts | 303° |
| 2026-05-01 12:27 | 43.40290 | 7.01364 | 2656 ft | 205 kts | 18° |
| 2026-05-01 12:28 | 43.42357 | 7.04005 | 2651 ft | 209 kts | 52° |
| 2026-05-01 12:28 | 43.43242 | 7.05597 | 2646 ft | 210 kts | 53° |
| 2026-05-01 12:28 | 43.45783 | 7.07452 | 1995 ft | 229 kts | 6° |
| 2026-05-01 12:29 | 43.47334 | 7.07643 | 1837 ft | 227 kts | 5° |
| 2026-05-01 12:29 | 43.48921 | 7.07896 | 1674 ft | 222 kts | 9° |
| 2026-05-01 12:29 | 43.51648 | 7.09181 | 2108 ft | 200 kts | 22° |
| 2026-05-01 12:30 | 43.54163 | 7.10681 | 2259 ft | 200 kts | 24° |
| 2026-05-01 12:30 | 43.55459 | 7.11402 | 2170 ft | 207 kts | 19° |
| 2026-05-01 12:30 | 43.56819 | 7.12102 | 2111 ft | 211 kts | 22° |
| 2026-05-01 12:31 | 43.58180 | 7.12918 | 1981 ft | 216 kts | 23° |
| 2026-05-01 12:31 | 43.59520 | 7.13820 | 1605 ft | 211 kts | 28° |
| 2026-05-01 12:31 | 43.60780 | 7.14888 | 953 ft | 215 kts | 33° |
| 2026-05-01 12:31 | 43.61855 | 7.16161 | 827 ft | 189 kts | 45° |
| 2026-05-01 12:32 | 43.62807 | 7.17262 | 667 ft | 173 kts | 35° |
| 2026-05-01 12:32 | 43.64513 | 7.19383 | 310 ft | 152 kts | 48° |
| 2026-05-01 12:32 | 43.65183 | 7.20426 | 111 ft | 136 kts | 40° |
| 2026-05-01 12:33 | 43.65816 | 7.21254 | 20 ft | 111 kts | 45° |
| 2026-05-01 12:33 | 43.66250 | 7.21866 | 19 ft | 69 kts | 44° |
| 2026-05-01 12:33 | 43.66497 | 7.22193 | 19 ft | 38 kts | 41° |
| 2026-05-01 12:33 | 43.66626 | 7.22350 | 17 ft | 9 kts | 48° |
| 2026-05-01 12:34 | 43.66632 | 7.22360 | 17 ft | 0 kts | 51° |
| 2026-05-01 12:34 | 43.66719 | 7.22461 | 18 ft | 28 kts | 14° |
| 2026-05-01 12:34 | 43.66798 | 7.22407 | 18 ft | 1 kts | 312° |
| 2026-05-01 12:34 | 43.66804 | 7.22395 | 18 ft | 0 kts | 295° |
| 2026-05-01 12:36 | 43.66804 | 7.22391 | 18 ft | 4 kts | 291° |
| 2026-05-01 12:36 | 43.66776 | 7.22283 | 18 ft | 18 kts | 232° |
| 2026-05-01 12:36 | 43.66676 | 7.22151 | 18 ft | 22 kts | 227° |
| 2026-05-01 12:36 | 43.66553 | 7.21980 | 18 ft | 29 kts | 224° |
| 2026-05-01 12:37 | 43.66389 | 7.21752 | 18 ft | 31 kts | 224° |
| 2026-05-01 12:37 | 43.66224 | 7.21517 | 18 ft | 37 kts | 223° |
| 2026-05-01 12:37 | 43.66024 | 7.21248 | 18 ft | 42 kts | 225° |
| 2026-05-01 12:37 | 43.65847 | 7.21002 | 19 ft | 23 kts | 227° |
| 2026-05-01 12:38 | 43.65761 | 7.20885 | 19 ft | 0 kts | 224° |
| 2026-05-01 12:38 | 43.65762 | 7.20886 | 19 ft | 0 kts | 224° |
| 2026-05-01 12:38 | 43.65762 | 7.20880 | 19 ft | 2 kts | 257° |
| 2026-05-01 12:39 | 43.65775 | 7.20871 | 19 ft | 3 kts | 346° |
| 2026-05-01 12:39 | 43.65854 | 7.20850 | 19 ft | 19 kts | 348° |
| 2026-05-01 12:39 | 43.65999 | 7.20821 | 19 ft | 21 kts | 354° |
| 2026-05-01 12:39 | 43.66124 | 7.20792 | 20 ft | 13 kts | 351° |
| 2026-05-01 12:40 | 43.66175 | 7.20773 | 21 ft | 0 kts | 316° |
| 2026-05-01 12:40 | 43.66176 | 7.20772 | 20 ft | 0 kts | 314° |
| 2026-05-01 12:40 | 43.66182 | 7.20763 | 19 ft | 6 kts | 310° |
| 2026-05-01 12:40 | 43.66206 | 7.20727 | 19 ft | 6 kts | 307° |